Time;durP1;ratioP1;P1;durP2;ratioP2;P2;SDS_P1;SDS_P2;PMS_P1;PMS_P2;Temp;Humidity;BMP_temperature;BMP_pressure;BME280_temperature;BME280_humidity;BME280_pressure;Samples;Min_cycle;Max_cycle;Signal;HPM_P1;HPM_P2
2022/08/25 00:01:29;;;;;;;8.98;7.95;;;22.70;99.90;;;;;;5073551;28;20115;-59
2022/08/25 00:03:57;;;;;;;10.98;8.48;;;22.70;99.90;;;;;;5074039;28;20213;-60
2022/08/25 00:06:23;;;;;;;9.05;8.13;;;22.70;99.90;;;;;;5073802;28;20036;-59
2022/08/25 00:08:49;;;;;;;9.73;7.97;;;22.70;99.90;;;;;;5065431;28;20041;-59
2022/08/25 00:11:22;;;;;;;9.70;7.90;;;22.60;99.90;;;;;;5073498;28;20115;-59
2022/08/25 00:13:53;;;;;;;9.00;7.88;;;22.50;99.90;;;;;;5074199;28;20045;-59
2022/08/25 00:16:20;;;;;;;8.32;7.53;;;22.50;99.90;;;;;;5074187;28;20035;-60
2022/08/25 00:18:49;;;;;;;10.30;7.78;;;22.40;99.90;;;;;;5066071;28;20067;-59
2022/08/25 00:21:16;;;;;;;9.60;7.65;;;22.40;99.90;;;;;;5067147;28;20520;-59
2022/08/25 00:23:42;;;;;;;9.00;7.68;;;22.40;99.90;;;;;;5064829;28;20047;-60
2022/08/25 00:26:09;;;;;;;9.52;7.28;;;22.40;99.90;;;;;;5073366;28;20048;-59
2022/08/25 00:28:36;;;;;;;7.53;6.72;;;22.40;99.90;;;;;;5067997;28;20033;-60
2022/08/25 00:31:03;;;;;;;9.05;6.35;;;22.30;99.90;;;;;;5064625;28;20072;-60
2022/08/25 00:33:30;;;;;;;10.50;6.50;;;22.30;99.90;;;;;;5073452;28;20052;-60
2022/08/25 00:35:56;;;;;;;8.00;6.45;;;22.30;99.90;;;;;;5073539;28;20037;-59
2022/08/25 00:38:22;;;;;;;8.00;5.95;;;22.30;99.90;;;;;;5069580;28;20044;-59
2022/08/25 00:41:04;;;;;;;12.13;6.50;;;22.20;99.90;;;;;;5073339;28;20105;-60
2022/08/25 00:43:40;;;;;;;9.48;5.88;;;22.20;99.90;;;;;;5073403;28;20084;-60
2022/08/25 00:46:10;;;;;;;8.68;5.95;;;22.20;99.90;;;;;;5063685;28;20076;-60
2022/08/25 00:48:37;;;;;;;7.57;5.65;;;22.20;99.90;;;;;;5062111;28;20458;-59
2022/08/25 00:51:04;;;;;;;7.57;5.78;;;22.20;99.90;;;;;;5061111;28;20059;-60
2022/08/25 00:53:31;;;;;;;8.95;5.53;;;22.20;99.90;;;;;;5072943;28;20032;-59
2022/08/25 00:55:57;;;;;;;8.57;5.10;;;22.20;99.90;;;;;;5073172;28;20066;-59
2022/08/25 00:58:27;;;;;;;9.48;5.35;;;22.20;99.90;;;;;;5069077;28;20132;-60
2022/08/25 01:00:56;;;;;;;11.10;5.68;;;22.20;99.90;;;;;;5071522;28;20412;-61
2022/08/25 01:03:23;;;;;;;7.95;5.32;;;22.20;99.90;;;;;;5072680;28;20373;-59
2022/08/25 01:05:49;;;;;;;8.55;5.13;;;22.20;99.90;;;;;;5073156;28;20110;-59
2022/08/25 01:08:20;;;;;;;6.97;5.10;;;22.10;99.90;;;;;;5069787;28;20846;-60
2022/08/25 01:10:46;;;;;;;6.40;4.95;;;22.10;99.90;;;;;;5069063;28;20115;-59
2022/08/25 01:13:18;;;;;;;8.20;4.80;;;22.00;99.90;;;;;;5072748;28;20041;-59
2022/08/25 01:15:46;;;;;;;9.05;4.80;;;22.10;99.90;;;;;;5072733;28;20040;-59
2022/08/25 01:18:12;;;;;;;6.40;4.70;;;22.00;99.90;;;;;;5069405;28;20044;-60
2022/08/25 01:20:38;;;;;;;8.57;4.60;;;22.00;99.90;;;;;;5066079;28;20036;-59
2022/08/25 01:23:03;;;;;;;6.70;4.68;;;22.00;99.90;;;;;;5072116;28;20048;-59
2022/08/25 01:25:38;;;;;;;7.82;4.50;;;22.00;99.90;;;;;;5071208;28;20048;-59
2022/08/25 01:28:04;;;;;;;7.10;4.30;;;22.00;99.90;;;;;;5071095;28;20129;-59
2022/08/25 01:30:30;;;;;;;5.05;4.10;;;22.00;99.90;;;;;;5045868;28;20489;-59
2022/08/25 01:32:56;;;;;;;7.85;3.83;;;22.00;99.90;;;;;;5072659;28;20121;-59
2022/08/25 01:35:22;;;;;;;7.82;3.92;;;22.00;99.90;;;;;;5072330;28;20370;-59
2022/08/25 01:37:48;;;;;;;7.88;4.28;;;22.00;99.90;;;;;;5072420;28;20037;-60
2022/08/25 01:40:14;;;;;;;7.63;3.85;;;21.90;99.90;;;;;;5069947;28;20097;-59
2022/08/25 01:43:10;;;;;;;5.47;3.80;;;22.00;99.90;;;;;;5072311;28;20629;-59
2022/08/25 01:45:38;;;;;;;9.63;3.97;;;22.00;99.90;;;;;;5071180;28;20372;-59
2022/08/25 01:48:05;;;;;;;8.82;4.03;;;21.90;99.90;;;;;;5069792;28;20469;-60
2022/08/25 01:50:31;;;;;;;5.93;3.70;;;22.00;99.90;;;;;;5067187;28;20036;-59
2022/08/25 01:53:06;;;;;;;8.68;4.13;;;22.00;99.90;;;;;;5071928;28;20102;-59
2022/08/25 01:55:50;;;;;;;6.95;3.95;;;22.00;99.90;;;;;;5058109;28;20407;-59
2022/08/25 01:58:24;;;;;;;8.27;3.97;;;22.00;99.90;;;;;;5060259;28;20051;-60
2022/08/25 02:00:53;;;;;;;6.93;3.70;;;22.00;99.90;;;;;;5070271;28;20119;-59
2022/08/25 02:03:19;;;;;;;6.70;3.83;;;21.90;99.90;;;;;;5072023;28;20098;-59
2022/08/25 02:05:45;;;;;;;5.93;3.97;;;21.90;99.90;;;;;;5071825;28;20033;-59
2022/08/25 02:08:11;;;;;;;7.22;3.67;;;22.00;99.90;;;;;;5069900;28;20052;-60
2022/08/25 02:10:39;;;;;;;7.85;3.75;;;21.90;99.90;;;;;;5066673;28;20511;-59
2022/08/25 02:13:06;;;;;;;7.53;3.60;;;21.90;99.90;;;;;;5071685;28;20089;-59
2022/08/25 02:15:31;;;;;;;4.72;3.75;;;21.90;99.90;;;;;;5071703;28;20041;-59
2022/08/25 02:17:58;;;;;;;6.20;3.72;;;21.80;99.90;;;;;;5071749;28;20434;-59
2022/08/25 02:20:25;;;;;;;5.18;3.33;;;21.80;99.90;;;;;;5062306;28;20438;-59
2022/08/25 02:22:51;;;;;;;7.00;3.80;;;21.80;99.90;;;;;;5071584;28;20036;-59
2022/08/25 02:25:18;;;;;;;5.78;3.85;;;21.70;99.90;;;;;;5071597;28;20059;-59
2022/08/25 02:27:44;;;;;;;6.88;3.50;;;21.70;99.90;;;;;;5071501;28;20067;-59
2022/08/25 02:30:12;;;;;;;8.70;3.45;;;21.70;99.90;;;;;;5057105;28;20028;-59
2022/08/25 02:32:38;;;;;;;5.28;3.28;;;21.70;99.90;;;;;;5070308;28;20116;-59
2022/08/25 02:35:05;;;;;;;8.20;3.88;;;21.70;99.90;;;;;;5071346;28;20036;-59
2022/08/25 02:37:31;;;;;;;9.07;3.55;;;21.70;99.90;;;;;;5071373;28;20036;-61
2022/08/25 02:39:58;;;;;;;6.22;3.40;;;21.70;99.90;;;;;;5069904;28;20036;-59
2022/08/25 02:42:23;;;;;;;6.90;3.25;;;21.60;99.90;;;;;;5070980;28;20045;-60
2022/08/25 02:44:49;;;;;;;6.43;2.97;;;21.60;99.90;;;;;;5070324;28;20472;-60
2022/08/25 02:47:15;;;;;;;5.88;3.47;;;21.60;99.90;;;;;;5071020;28;20098;-59
2022/08/25 02:49:41;;;;;;;5.32;3.10;;;21.50;99.90;;;;;;5067301;28;20055;-60
2022/08/25 02:52:07;;;;;;;7.53;3.30;;;21.50;99.90;;;;;;5070381;28;20036;-59
2022/08/25 02:54:34;;;;;;;7.20;3.10;;;21.50;99.90;;;;;;5069993;28;20097;-59
2022/08/25 02:56:59;;;;;;;8.02;3.38;;;21.50;99.90;;;;;;5071237;28;20094;-59
2022/08/25 02:59:26;;;;;;;9.25;3.17;;;21.50;99.90;;;;;;5066563;28;20450;-59
2022/08/25 03:01:51;;;;;;;7.75;3.30;;;21.50;99.90;;;;;;5070889;28;20086;-59
2022/08/25 03:04:17;;;;;;;8.57;3.58;;;21.50;99.90;;;;;;5064841;28;20095;-59
2022/08/25 03:06:43;;;;;;;6.53;3.20;;;21.50;99.90;;;;;;5062355;28;20072;-59
2022/08/25 03:09:09;;;;;;;5.72;3.28;;;21.50;99.90;;;;;;5063421;28;20032;-60
2022/08/25 03:11:37;;;;;;;5.72;3.10;;;21.50;99.90;;;;;;5070646;28;20040;-60
2022/08/25 03:14:07;;;;;;;3.97;2.90;;;21.50;99.90;;;;;;5069767;28;20083;-59
2022/08/25 03:16:33;;;;;;;6.25;3.35;;;21.40;99.90;;;;;;5071047;28;20132;-59
2022/08/25 03:18:59;;;;;;;4.63;3.30;;;21.40;99.90;;;;;;5063099;28;20418;-59
2022/08/25 03:21:26;;;;;;;6.80;3.55;;;21.40;99.90;;;;;;5070715;28;20037;-59
2022/08/25 03:23:52;;;;;;;10.45;3.08;;;21.40;99.90;;;;;;5069744;28;20036;-60
2022/08/25 03:29:05;;;;;;;8.00;3.47;;;21.30;99.90;;;;;;5062520;28;20052;-60
2022/08/25 03:31:32;;;;;;;7.32;3.63;;;21.30;99.90;;;;;;5066751;28;20040;-60
2022/08/25 03:33:58;;;;;;;6.38;3.33;;;21.30;99.90;;;;;;5074853;28;20043;-59
2022/08/25 03:36:25;;;;;;;8.15;3.55;;;21.30;99.90;;;;;;5074747;28;20047;-59
2022/08/25 03:38:52;;;;;;;9.27;3.70;;;21.20;99.90;;;;;;5067737;28;20116;-60
2022/08/25 03:41:22;;;;;;;4.63;3.20;;;21.20;99.90;;;;;;5066292;28;20127;-59
2022/08/25 03:43:49;;;;;;;7.75;3.20;;;21.20;99.90;;;;;;5074996;28;20028;-59
2022/08/25 03:46:21;;;;;;;4.65;3.25;;;21.20;99.90;;;;;;5074332;28;20101;-59
2022/08/25 03:48:47;;;;;;;5.25;3.10;;;21.20;99.90;;;;;;5071944;28;20037;-59
2022/08/25 03:51:19;;;;;;;6.97;3.25;;;21.20;99.90;;;;;;5074352;28;20024;-59
2022/08/25 03:53:44;;;;;;;7.32;3.45;;;21.10;99.90;;;;;;5074187;28;20128;-59
2022/08/25 03:56:10;;;;;;;5.65;3.17;;;21.10;99.90;;;;;;5074340;28;20152;-59
2022/08/25 03:58:35;;;;;;;5.18;3.25;;;21.10;99.90;;;;;;5070321;28;20064;-59
2022/08/25 04:01:01;;;;;;;10.50;3.38;;;21.10;99.90;;;;;;5073590;28;20461;-59
2022/08/25 04:03:27;;;;;;;7.30;3.15;;;21.00;99.90;;;;;;5074315;28;20145;-59
2022/08/25 04:05:52;;;;;;;4.65;3.15;;;21.00;99.90;;;;;;5059615;28;20115;-59
2022/08/25 04:08:18;;;;;;;6.82;3.40;;;21.00;99.90;;;;;;5072121;28;20068;-59
2022/08/25 04:10:44;;;;;;;7.50;3.50;;;21.00;99.90;;;;;;5069820;28;20048;-59
2022/08/25 04:13:11;;;;;;;6.00;3.30;;;21.00;99.90;;;;;;5074077;28;20040;-59
2022/08/25 04:15:41;;;;;;;6.22;3.83;;;21.00;99.90;;;;;;5073658;28;20044;-59
2022/08/25 04:18:07;;;;;;;5.40;3.70;;;20.90;99.90;;;;;;5073749;28;20033;-59
2022/08/25 04:20:32;;;;;;;6.75;3.75;;;20.90;99.90;;;;;;5066129;28;20045;-60
2022/08/25 04:23:00;;;;;;;7.70;3.95;;;20.90;99.90;;;;;;5073622;28;20399;-59
2022/08/25 04:25:26;;;;;;;8.15;3.72;;;20.90;99.90;;;;;;5072327;28;20056;-59
2022/08/25 04:27:53;;;;;;;7.00;3.65;;;20.80;99.90;;;;;;5074119;28;20055;-59
2022/08/25 04:30:20;;;;;;;9.32;3.88;;;20.80;99.90;;;;;;5060146;28;20062;-59
2022/08/25 04:32:48;;;;;;;7.03;3.90;;;20.80;99.90;;;;;;5073721;28;20052;-59
2022/08/25 04:35:14;;;;;;;7.78;4.15;;;20.80;99.90;;;;;;5073570;28;20040;-59
2022/08/25 04:37:40;;;;;;;9.10;3.85;;;20.70;99.90;;;;;;5073528;28;20043;-59
2022/08/25 04:40:06;;;;;;;5.75;3.35;;;20.70;99.90;;;;;;5058450;28;20037;-59
2022/08/25 04:42:32;;;;;;;6.70;3.88;;;20.70;99.90;;;;;;5072993;28;20044;-59
2022/08/25 04:45:00;;;;;;;7.63;3.80;;;20.70;99.90;;;;;;5073127;28;20055;-58
2022/08/25 04:47:27;;;;;;;7.05;3.50;;;20.70;99.90;;;;;;5073410;28;20044;-59
2022/08/25 04:49:52;;;;;;;6.25;3.72;;;20.60;99.90;;;;;;5070793;28;20040;-59
2022/08/25 04:52:19;;;;;;;7.25;3.65;;;20.60;99.90;;;;;;5073200;28;20078;-59
2022/08/25 04:54:45;;;;;;;6.95;3.75;;;20.60;99.90;;;;;;5073354;28;20044;-59
2022/08/25 04:57:11;;;;;;;6.05;4.00;;;20.60;99.90;;;;;;5072764;28;20433;-59
2022/08/25 04:59:38;;;;;;;6.15;3.97;;;20.70;99.90;;;;;;5069436;28;20047;-61
2022/08/25 05:02:05;;;;;;;8.77;4.35;;;20.60;99.90;;;;;;5058282;28;20466;-59
2022/08/25 05:04:33;;;;;;;8.60;4.40;;;20.60;99.90;;;;;;5072953;28;20098;-59
2022/08/25 05:06:59;;;;;;;7.28;3.60;;;20.70;99.90;;;;;;5072959;28;20040;-59
2022/08/25 05:09:26;;;;;;;6.60;3.70;;;20.70;99.90;;;;;;5067153;28;20492;-59
2022/08/25 05:11:53;;;;;;;12.77;4.18;;;20.60;99.90;;;;;;5072458;28;20045;-61
2022/08/25 05:14:21;;;;;;;8.65;4.03;;;20.70;99.90;;;;;;5068821;28;20029;-60
2022/08/25 05:16:47;;;;;;;6.90;3.58;;;20.70;99.90;;;;;;5062868;28;20046;-60
2022/08/25 05:19:13;;;;;;;8.07;3.95;;;20.70;99.90;;;;;;5065570;28;20420;-59
2022/08/25 05:21:40;;;;;;;9.15;3.83;;;20.80;99.90;;;;;;5072087;28;20064;-59
2022/08/25 05:24:06;;;;;;;7.82;3.90;;;20.80;99.90;;;;;;5072125;28;20461;-59
2022/08/25 05:26:33;;;;;;;7.22;3.70;;;20.80;99.90;;;;;;5071189;28;20048;-60
2022/08/25 05:29:02;;;;;;;9.75;3.70;;;20.90;99.90;;;;;;5064524;28;20041;-59
2022/08/25 05:31:28;;;;;;;4.78;3.88;;;20.90;99.90;;;;;;5066933;28;20063;-60
2022/08/25 05:33:54;;;;;;;6.57;3.70;;;20.90;99.90;;;;;;5072237;28;20461;-60
2022/08/25 05:36:21;;;;;;;9.50;3.90;;;21.00;99.90;;;;;;5072529;28;20105;-61
2022/08/25 05:38:47;;;;;;;8.30;3.97;;;21.20;99.90;;;;;;5067207;28;20155;-59
2022/08/25 05:41:17;;;;;;;9.30;3.97;;;21.40;99.90;;;;;;5063192;28;20033;-60
2022/08/25 05:43:45;;;;;;;7.40;4.13;;;21.70;99.90;;;;;;5072458;28;20346;-60
2022/08/25 05:46:12;;;;;;;5.93;3.92;;;22.10;99.90;;;;;;5072297;28;20154;-60
2022/08/25 05:48:38;;;;;;;7.38;3.90;;;22.80;99.90;;;;;;5070439;28;20052;-60
2022/08/25 05:51:08;;;;;;;7.47;3.65;;;23.30;99.90;;;;;;5070888;28;20040;-60
2022/08/25 05:53:35;;;;;;;7.13;3.80;;;23.80;99.90;;;;;;5057855;28;20254;-58
2022/08/25 05:56:01;;;;;;;8.32;3.67;;;24.10;99.90;;;;;;5071243;28;20033;-59
2022/08/25 05:58:28;;;;;;;7.28;4.00;;;24.40;99.30;;;;;;5068523;28;20044;-59
2022/08/25 06:00:55;;;;;;;5.22;3.85;;;24.60;99.10;;;;;;5070401;28;20119;-58
2022/08/25 06:03:21;;;;;;;5.85;3.30;;;24.80;98.90;;;;;;5072107;28;20041;-59
2022/08/25 06:05:47;;;;;;;9.52;3.78;;;25.10;98.60;;;;;;5072284;28;20047;-58
2022/08/25 06:08:13;;;;;;;8.55;3.75;;;25.30;98.30;;;;;;5071837;28;20148;-58
2022/08/25 06:10:38;;;;;;;6.43;3.70;;;25.60;97.80;;;;;;5066581;28;20071;-58
2022/08/25 06:13:04;;;;;;;10.40;3.60;;;25.70;97.70;;;;;;5071689;28;20140;-58
2022/08/25 06:15:30;;;;;;;6.32;3.63;;;25.70;97.60;;;;;;5057873;28;20065;-59
2022/08/25 06:18:01;;;;;;;6.25;3.45;;;25.90;97.60;;;;;;5071158;28;20032;-60
2022/08/25 06:20:29;;;;;;;7.03;3.72;;;26.00;97.20;;;;;;5064888;28;20083;-59
2022/08/25 06:22:55;;;;;;;7.05;3.60;;;26.10;96.90;;;;;;5070180;28;20099;-60
2022/08/25 06:25:23;;;;;;;7.05;3.67;;;25.90;97.10;;;;;;5071455;28;20059;-59
2022/08/25 06:27:50;;;;;;;6.13;3.85;;;26.10;97.10;;;;;;5070647;28;20182;-59
2022/08/25 06:30:18;;;;;;;10.25;4.05;;;26.40;96.80;;;;;;5056878;28;20139;-59
2022/08/25 06:32:45;;;;;;;5.03;3.65;;;26.50;96.70;;;;;;5071646;28;20051;-58
2022/08/25 06:35:15;;;;;;;6.82;3.78;;;26.20;97.00;;;;;;5071302;28;20530;-58
2022/08/25 06:37:41;;;;;;;8.55;3.72;;;26.20;96.80;;;;;;5071366;28;20341;-60
2022/08/25 06:40:07;;;;;;;5.50;3.80;;;26.20;97.10;;;;;;5057302;28;20112;-59
2022/08/25 06:42:33;;;;;;;5.55;3.80;;;26.50;96.70;;;;;;5071505;28;20037;-59
2022/08/25 06:45:00;;;;;;;5.07;3.42;;;26.30;96.90;;;;;;5071373;28;20040;-59
2022/08/25 06:47:26;;;;;;;7.35;4.10;;;26.40;97.00;;;;;;5071497;28;20368;-58
2022/08/25 06:49:52;;;;;;;10.05;3.75;;;26.70;96.90;;;;;;5057575;28;20447;-58
2022/08/25 06:52:17;;;;;;;6.60;3.83;;;26.90;96.80;;;;;;5065090;28;20033;-59
2022/08/25 06:54:43;;;;;;;6.53;3.40;;;27.00;96.70;;;;;;5051186;28;20056;-59
2022/08/25 06:57:09;;;;;;;7.57;3.70;;;26.90;96.70;;;;;;5067504;28;20032;-59
2022/08/25 06:59:36;;;;;;;6.28;3.50;;;27.00;96.60;;;;;;5068343;28;20119;-59
2022/08/25 07:02:04;;;;;;;9.82;4.20;;;26.80;96.50;;;;;;5069913;28;20045;-59
2022/08/25 07:04:30;;;;;;;5.60;3.83;;;26.70;96.80;;;;;;5071308;28;20052;-59
2022/08/25 07:06:56;;;;;;;6.30;3.70;;;26.90;96.90;;;;;;5071815;28;20071;-59
2022/08/25 07:09:22;;;;;;;6.78;3.92;;;26.80;96.80;;;;;;5070463;28;20032;-59
2022/08/25 07:11:47;;;;;;;7.70;3.75;;;26.90;97.00;;;;;;5074800;28;20082;-59
2022/08/25 07:14:15;;;;;;;7.35;3.90;;;27.10;96.90;;;;;;5075174;28;20468;-59
2022/08/25 07:16:42;;;;;;;7.43;4.05;;;27.10;96.80;;;;;;5075256;28;20551;-59
2022/08/25 07:19:09;;;;;;;8.85;3.92;;;27.10;96.80;;;;;;5068997;28;20025;-60
2022/08/25 07:21:37;;;;;;;6.63;4.03;;;27.10;97.00;;;;;;5074427;28;20037;-59
2022/08/25 07:24:10;;;;;;;6.85;3.88;;;26.80;97.20;;;;;;5074915;28;20037;-59
2022/08/25 07:26:37;;;;;;;6.97;4.38;;;26.60;97.40;;;;;;5071543;28;20377;-59
2022/08/25 07:29:16;;;;;;;7.03;4.13;;;26.40;98.00;;;;;;5057389;28;20094;-61
2022/08/25 07:31:42;;;;;;;8.13;4.13;;;26.30;98.30;;;;;;5068307;28;20056;-59
2022/08/25 07:36:54;;;;;;;11.50;4.35;;;26.10;98.20;;;;;;5074238;28;20029;-60
2022/08/25 07:39:20;;;;;;;6.60;3.72;;;26.10;98.40;;;;;;5066149;28;20063;-59
2022/08/25 07:41:46;;;;;;;5.05;3.63;;;26.10;98.50;;;;;;5069875;28;20162;-59
2022/08/25 07:44:12;;;;;;;5.63;3.78;;;26.20;98.70;;;;;;5074669;28;20072;-59
2022/08/25 07:46:38;;;;;;;4.93;3.60;;;26.30;98.70;;;;;;5074838;28;20047;-59
2022/08/25 07:49:06;;;;;;;6.55;3.72;;;26.30;98.60;;;;;;5068565;28;20033;-60
2022/08/25 07:51:32;;;;;;;8.10;3.83;;;26.50;98.60;;;;;;5065786;28;20040;-60
2022/08/25 07:53:57;;;;;;;6.40;3.75;;;26.50;98.40;;;;;;5073243;28;20320;-59
2022/08/25 07:56:23;;;;;;;8.48;3.63;;;26.50;98.40;;;;;;5074502;28;20161;-60
2022/08/25 07:58:49;;;;;;;8.52;3.72;;;26.60;98.50;;;;;;5072038;28;20044;-61
2022/08/25 08:01:20;;;;;;;7.75;3.83;;;26.70;98.30;;;;;;5073909;28;20040;-60
2022/08/25 08:03:46;;;;;;;8.45;3.90;;;26.70;98.30;;;;;;5074180;28;20174;-59
2022/08/25 08:06:14;;;;;;;8.02;3.65;;;26.80;98.30;;;;;;5074151;28;20130;-59
2022/08/25 08:08:44;;;;;;;8.07;4.20;;;26.80;98.20;;;;;;5070428;28;20032;-60
2022/08/25 08:11:25;;;;;;;7.63;3.78;;;26.90;98.10;;;;;;5073344;28;20070;-60
2022/08/25 08:13:53;;;;;;;6.97;3.70;;;27.00;98.10;;;;;;5073738;28;20382;-59
2022/08/25 08:16:20;;;;;;;7.43;3.60;;;27.10;98.00;;;;;;5068122;28;20041;-59
2022/08/25 08:18:46;;;;;;;8.65;3.50;;;27.20;98.10;;;;;;5061432;28;20122;-59
2022/08/25 08:21:15;;;;;;;8.98;3.35;;;27.30;97.90;;;;;;5053246;28;20120;-59
2022/08/25 08:23:40;;;;;;;6.88;3.53;;;27.30;97.80;;;;;;5064665;28;20138;-60
2022/08/25 08:26:06;;;;;;;6.75;3.25;;;27.40;97.70;;;;;;5073354;28;20123;-59
2022/08/25 08:28:32;;;;;;;9.35;3.80;;;27.50;97.70;;;;;;5071622;28;20068;-59
2022/08/25 08:30:57;;;;;;;9.88;3.60;;;27.50;97.70;;;;;;5063905;28;20044;-58
2022/08/25 08:33:23;;;;;;;5.65;3.38;;;27.60;97.70;;;;;;5073638;28;20402;-59
2022/08/25 08:36:08;;;;;;;6.18;3.35;;;27.70;97.90;;;;;;5073934;28;20028;-59
2022/08/25 08:38:35;;;;;;;8.75;3.50;;;27.70;97.30;;;;;;5071565;28;20446;-58
2022/08/25 08:44:49;;;;;;;6.18;3.10;;;27.90;97.10;;;;;;5040137;28;20343;-58
2022/08/25 08:47:17;;;;;;;5.82;3.20;;;28.00;96.90;;;;;;5073368;28;20192;-58
2022/08/25 08:50:20;;;;;;;6.40;3.25;;;28.20;97.10;;;;;;5061865;28;20041;-58
2022/08/25 08:52:53;;;;;;;4.82;3.08;;;28.40;96.70;;;;;;5049580;28;20760;-58
2022/08/25 08:55:43;;;;;;;6.55;3.42;;;28.40;96.40;;;;;;5073625;28;20040;-58
2022/08/25 08:58:19;;;;;;;9.05;3.05;;;28.40;96.30;;;;;;5073354;28;20033;-60
2022/08/25 09:00:51;;;;;;;7.00;2.88;;;28.50;96.20;;;;;;5069624;28;20068;-59
2022/08/25 09:03:40;;;;;;;10.55;3.00;;;28.60;96.10;;;;;;5072150;28;20072;-59
2022/08/25 09:06:11;;;;;;;6.35;2.53;;;28.70;96.10;;;;;;5058491;28;20392;-59
2022/08/25 09:08:42;;;;;;;7.78;3.10;;;28.70;96.10;;;;;;5070755;28;20044;-59
2022/08/25 09:11:32;;;;;;;4.22;2.70;;;28.80;95.70;;;;;;5071722;28;20445;-59
2022/08/25 09:14:32;;;;;;;5.30;2.42;;;28.90;95.00;;;;;;5071564;28;20119;-61
2022/08/25 09:17:06;;;;;;;8.07;2.85;;;28.90;95.00;;;;;;5072944;28;20115;-58
2022/08/25 09:19:40;;;;;;;7.13;2.88;;;29.10;95.20;;;;;;5067168;28;20496;-60
2022/08/25 09:22:30;;;;;;;7.35;2.67;;;29.20;95.20;;;;;;5060048;28;20040;-59
2022/08/25 09:25:09;;;;;;;7.00;2.35;;;29.30;94.70;;;;;;5045576;28;20051;-58
2022/08/25 09:28:10;;;;;;;5.75;2.55;;;29.40;94.30;;;;;;5071488;28;20151;-58
2022/08/25 09:30:48;;;;;;;7.32;3.08;;;29.40;94.40;;;;;;5041505;28;20136;-59
2022/08/25 09:33:20;;;;;;;5.65;2.60;;;29.50;94.60;;;;;;5072567;28;20112;-59
2022/08/25 09:35:47;;;;;;;4.40;2.50;;;29.60;95.00;;;;;;5071362;28;20158;-59
2022/08/25 09:38:14;;;;;;;6.30;3.00;;;29.70;94.60;;;;;;5070767;28;20108;-59
2022/08/25 09:40:48;;;;;;;5.43;2.67;;;29.70;94.40;;;;;;5050312;28;20080;-58
2022/08/25 09:43:22;;;;;;;4.90;2.70;;;29.80;94.40;;;;;;5064766;28;20048;-59
2022/08/25 09:45:58;;;;;;;3.33;2.40;;;29.90;93.90;;;;;;5072475;28;20028;-59
2022/08/25 09:48:36;;;;;;;8.93;2.50;;;30.00;93.50;;;;;;5071127;28;20370;-59
2022/08/25 09:51:27;;;;;;;5.95;2.60;;;30.00;93.60;;;;;;5046433;28;20040;-59
2022/08/25 09:54:04;;;;;;;6.95;2.75;;;30.00;93.80;;;;;;5050683;28;20052;-59
2022/08/25 09:56:32;;;;;;;6.72;2.80;;;30.20;93.70;;;;;;5070801;28;20036;-58
2022/08/25 09:59:18;;;;;;;6.07;3.05;;;30.20;93.50;;;;;;5052995;28;20032;-59
2022/08/25 10:01:56;;;;;;;4.80;2.72;;;30.40;93.50;;;;;;5070771;28;20048;-59
2022/08/25 10:04:30;;;;;;;8.77;2.95;;;30.50;92.90;;;;;;5070811;28;20062;-59
2022/08/25 10:06:57;;;;;;;4.68;2.58;;;30.50;93.20;;;;;;5071413;28;20044;-59
2022/08/25 10:09:46;;;;;;;5.53;2.45;;;30.70;92.70;;;;;;5068671;28;20032;-59
2022/08/25 10:12:23;;;;;;;5.80;2.50;;;30.70;92.20;;;;;;5035996;28;20163;-59
2022/08/25 10:14:50;;;;;;;4.25;2.58;;;30.70;91.20;;;;;;5071943;28;20043;-59
2022/08/25 10:17:23;;;;;;;5.30;2.58;;;30.70;91.70;;;;;;5069994;28;20036;-59
2022/08/25 10:20:10;;;;;;;5.25;2.50;;;30.80;91.10;;;;;;5066615;28;20044;-59
2022/08/25 10:22:38;;;;;;;5.47;2.40;;;30.80;90.80;;;;;;5053518;28;20040;-59
2022/08/25 10:25:07;;;;;;;3.55;2.10;;;30.80;90.60;;;;;;5070147;28;20060;-59
2022/08/25 10:27:51;;;;;;;4.72;2.55;;;30.80;90.10;;;;;;5070428;28;20040;-59
2022/08/25 10:30:46;;;;;;;5.55;2.75;;;30.90;90.50;;;;;;5060064;28;20056;-59
2022/08/25 10:33:27;;;;;;;5.43;2.30;;;31.00;90.90;;;;;;5069217;28;20127;-59
2022/08/25 10:36:16;;;;;;;6.22;2.25;;;31.00;90.40;;;;;;5059608;28;20048;-59
2022/08/25 10:38:56;;;;;;;5.43;2.90;;;31.00;90.00;;;;;;5067810;28;20074;-59
2022/08/25 10:41:39;;;;;;;4.07;2.35;;;31.10;89.70;;;;;;5049247;28;20094;-59
2022/08/25 10:47:44;;;;;;;4.68;2.70;;;31.10;90.10;;;;;;5071156;28;20044;-59
2022/08/25 10:50:31;;;;;;;7.50;2.67;;;31.20;90.70;;;;;;5056177;28;20095;-59
2022/08/25 10:53:21;;;;;;;5.50;2.50;;;31.30;90.40;;;;;;5059984;28;20417;-58
2022/08/25 10:56:32;;;;;;;4.57;2.40;;;31.40;90.70;;;;;;5069103;28;20112;-58
2022/08/25 10:59:42;;;;;;;7.68;2.88;;;31.60;90.70;;;;;;5028098;28;20389;-59
2022/08/25 11:02:20;;;;;;;4.75;2.80;;;31.70;90.90;;;;;;5027367;28;20053;-59
2022/08/25 11:05:13;;;;;;;6.63;2.70;;;31.60;90.30;;;;;;5066016;28;20570;-59
2022/08/25 11:07:47;;;;;;;4.10;2.70;;;31.70;90.20;;;;;;5069684;28;20111;-59
2022/08/25 11:10:44;;;;;;;4.97;2.67;;;31.70;89.70;;;;;;5067295;28;20044;-60
2022/08/25 11:13:32;;;;;;;3.25;2.42;;;31.70;89.70;;;;;;5021108;28;20053;-60
2022/08/25 11:16:10;;;;;;;6.00;2.65;;;31.70;89.60;;;;;;5050583;28;20472;-59
2022/08/25 11:18:54;;;;;;;4.07;2.58;;;31.70;90.00;;;;;;5069022;28;20469;-59
2022/08/25 11:21:30;;;;;;;5.90;2.63;;;31.70;89.30;;;;;;5051494;28;20502;-59
2022/08/25 11:24:08;;;;;;;4.00;2.25;;;31.80;87.50;;;;;;5053024;28;20072;-60
2022/08/25 11:26:36;;;;;;;5.78;2.72;;;31.70;85.90;;;;;;5067090;28;20041;-60
2022/08/25 11:29:13;;;;;;;7.43;2.50;;;31.80;87.20;;;;;;5054249;28;20402;-59
2022/08/25 11:31:42;;;;;;;3.58;2.20;;;31.80;86.90;;;;;;5063543;28;20053;-58
2022/08/25 11:34:13;;;;;;;4.57;2.75;;;31.90;86.00;;;;;;5058661;28;20040;-59
2022/08/25 11:36:42;;;;;;;3.35;2.28;;;31.90;86.10;;;;;;5068117;28;20043;-60
2022/08/25 11:39:10;;;;;;;5.18;2.20;;;31.90;86.50;;;;;;5035171;28;20040;-59
2022/08/25 11:41:48;;;;;;;3.70;2.20;;;32.00;86.20;;;;;;5063753;28;20032;-59
2022/08/25 11:44:41;;;;;;;3.40;2.20;;;32.00;83.60;;;;;;5069680;28;20048;-59
2022/08/25 11:47:06;;;;;;;;;;;32.00;84.70;;;;;;5069855;28;20044;-59
2022/08/25 11:49:41;;;;;;;3.55;2.30;;;32.00;86.00;;;;;;5061009;28;19916;-60
2022/08/25 11:52:32;;;;;;;4.38;2.50;;;32.10;86.10;;;;;;5066205;28;20040;-59
2022/08/25 11:55:18;;;;;;;4.65;2.53;;;32.20;84.80;;;;;;5072975;28;20037;-60
2022/08/25 11:57:46;;;;;;;4.32;2.50;;;32.10;84.70;;;;;;5065761;28;20079;-59
2022/08/25 12:00:39;;;;;;;4.22;2.50;;;32.10;85.30;;;;;;5042312;28;20090;-59
2022/08/25 12:03:30;;;;;;;4.13;2.78;;;32.20;85.50;;;;;;5051306;28;20048;-58
2022/08/25 12:06:22;;;;;;;3.97;2.45;;;32.30;84.10;;;;;;5056069;28;20115;-59
2022/08/25 12:08:59;;;;;;;4.88;2.50;;;32.30;84.00;;;;;;5054338;28;20106;-59
2022/08/25 12:11:38;;;;;;;4.70;2.63;;;32.40;84.20;;;;;;5072355;28;20127;-59
2022/08/25 12:14:36;;;;;;;3.55;2.60;;;32.30;83.10;;;;;;5072619;28;20084;-59
2022/08/25 12:17:16;;;;;;;3.28;2.20;;;32.30;83.90;;;;;;5072360;28;20054;-59
2022/08/25 12:19:41;;;;;;;4.68;2.60;;;32.20;83.70;;;;;;5068497;28;20115;-59
2022/08/25 12:22:07;;;;;;;4.55;2.70;;;32.40;83.30;;;;;;5055881;28;20128;-59
2022/08/25 12:24:42;;;;;;;5.63;2.70;;;32.30;84.00;;;;;;5042123;28;20040;-59
2022/08/25 12:27:22;;;;;;;5.63;2.55;;;32.30;84.30;;;;;;5072529;28;20052;-59
2022/08/25 12:30:17;;;;;;;4.95;2.55;;;32.30;83.50;;;;;;5046388;28;20052;-59
2022/08/25 12:33:07;;;;;;;7.40;3.03;;;32.30;84.00;;;;;;5055748;28;20041;-59
2022/08/25 12:35:50;;;;;;;4.65;2.33;;;32.40;83.20;;;;;;5072718;28;20087;-59
2022/08/25 12:38:45;;;;;;;3.25;2.42;;;32.50;83.10;;;;;;5058886;28;20037;-59
2022/08/25 12:41:15;;;;;;;3.80;2.35;;;32.50;82.70;;;;;;5042558;28;20037;-59
2022/08/25 12:43:49;;;;;;;8.05;2.40;;;32.40;82.00;;;;;;5070326;28;20040;-59
2022/08/25 12:46:24;;;;;;;4.13;2.35;;;32.40;82.50;;;;;;5073249;28;20515;-59
2022/08/25 12:48:58;;;;;;;4.10;2.45;;;32.50;83.00;;;;;;5070343;28;20369;-60
2022/08/25 12:51:26;;;;;;;3.45;2.28;;;32.50;82.70;;;;;;5063497;28;20044;-59
2022/08/25 12:54:12;;;;;;;5.88;2.42;;;32.60;83.40;;;;;;5055180;28;20043;-59
2022/08/25 12:56:44;;;;;;;3.22;2.28;;;32.50;82.80;;;;;;5072346;28;20052;-59
2022/08/25 12:59:17;;;;;;;4.97;2.40;;;32.60;82.80;;;;;;5066866;28;20124;-59
2022/08/25 13:02:23;;;;;;;3.70;2.28;;;32.60;82.50;;;;;;5035382;28;20047;-60
2022/08/25 13:05:15;;;;;;;4.03;2.42;;;32.50;82.40;;;;;;5060701;28;20140;-59
2022/08/25 13:07:50;;;;;;;3.23;2.13;;;32.60;81.30;;;;;;5055146;28;20528;-59
2022/08/25 13:10:49;;;;;;;3.55;2.20;;;32.50;81.30;;;;;;5069469;28;20033;-60
2022/08/25 13:13:24;;;;;;;3.53;1.98;;;32.50;81.30;;;;;;5071605;28;20040;-59
2022/08/25 13:16:03;;;;;;;4.65;2.40;;;32.50;81.40;;;;;;5055220;28;20048;-59
2022/08/25 13:18:32;;;;;;;3.85;2.10;;;32.60;81.70;;;;;;5071427;28;20036;-60
2022/08/25 13:21:07;;;;;;;4.03;2.10;;;32.70;82.20;;;;;;5053801;28;20059;-60